sensor_id;sensor_type;location;lat;lon;timestamp;pressure;altitude;pressure_sealevel;temperature;humidity
78229;BME280;67502;49.142;9.124;2023-02-11T00:00:53;101747.31;;;-3.74;78.04
78229;BME280;67502;49.142;9.124;2023-02-11T00:03:20;101752.91;;;-3.52;78.58
78229;BME280;67502;49.142;9.124;2023-02-11T00:05:56;101740.28;;;-3.36;77.72
78229;BME280;67502;49.142;9.124;2023-02-11T00:08:23;101739.34;;;-3.41;76.85
78229;BME280;67502;49.142;9.124;2023-02-11T00:10:54;101751.06;;;-3.59;76.89
78229;BME280;67502;49.142;9.124;2023-02-11T00:13:21;101747.47;;;-3.67;77.34
78229;BME280;67502;49.142;9.124;2023-02-11T00:15:48;101746.44;;;-3.73;78.37
78229;BME280;67502;49.142;9.124;2023-02-11T00:18:15;101746.28;;;-3.81;77.34
78229;BME280;67502;49.142;9.124;2023-02-11T00:20:42;101750.56;;;-3.83;76.80
78229;BME280;67502;49.142;9.124;2023-02-11T00:23:09;101747.28;;;-3.76;78.61
78229;BME280;67502;49.142;9.124;2023-02-11T00:25:43;101750.09;;;-3.64;78.33
78229;BME280;67502;49.142;9.124;2023-02-11T00:28:11;101757.28;;;-3.51;77.05
78229;BME280;67502;49.142;9.124;2023-02-11T00:30:37;101761.50;;;-3.54;77.96
78229;BME280;67502;49.142;9.124;2023-02-11T00:33:04;101755.06;;;-3.73;78.29
78229;BME280;67502;49.142;9.124;2023-02-11T00:35:31;101749.88;;;-3.76;78.52
78229;BME280;67502;49.142;9.124;2023-02-11T00:37:57;101747.97;;;-3.83;78.15
78229;BME280;67502;49.142;9.124;2023-02-11T00:40:24;101738.69;;;-3.73;80.99
78229;BME280;67502;49.142;9.124;2023-02-11T00:42:50;101739.88;;;-3.58;80.70
78229;BME280;67502;49.142;9.124;2023-02-11T00:45:17;101732.53;;;-3.36;80.57
78229;BME280;67502;49.142;9.124;2023-02-11T00:47:46;101729.41;;;-3.18;79.72
78229;BME280;67502;49.142;9.124;2023-02-11T00:50:13;101716.56;;;-3.14;78.84
78229;BME280;67502;49.142;9.124;2023-02-11T00:52:39;101710.59;;;-3.10;78.54
78229;BME280;67502;49.142;9.124;2023-02-11T00:55:06;101711.56;;;-3.05;78.20
78229;BME280;67502;49.142;9.124;2023-02-11T00:57:33;101709.94;;;-2.99;78.21
78229;BME280;67502;49.142;9.124;2023-02-11T00:59:59;101711.72;;;-2.95;78.22
78229;BME280;67502;49.142;9.124;2023-02-11T01:02:26;101710.81;;;-2.97;77.66
78229;BME280;67502;49.142;9.124;2023-02-11T01:04:52;101715.97;;;-2.99;77.97
78229;BME280;67502;49.142;9.124;2023-02-11T01:07:19;101715.97;;;-2.97;79.22
78229;BME280;67502;49.142;9.124;2023-02-11T01:09:46;101703.75;;;-3.06;78.54
78229;BME280;67502;49.142;9.124;2023-02-11T01:12:12;101717.63;;;-3.01;77.15
78229;BME280;67502;49.142;9.124;2023-02-11T01:14:39;101716.06;;;-2.93;78.48
78229;BME280;67502;49.142;9.124;2023-02-11T01:17:05;101716.03;;;-2.96;77.96
78229;BME280;67502;49.142;9.124;2023-02-11T01:19:32;101710.84;;;-2.96;78.30
78229;BME280;67502;49.142;9.124;2023-02-11T01:21:59;101707.47;;;-2.92;78.47
78229;BME280;67502;49.142;9.124;2023-02-11T01:24:25;101696.41;;;-2.83;77.72
78229;BME280;67502;49.142;9.124;2023-02-11T01:26:52;101700.72;;;-2.82;77.65
78229;BME280;67502;49.142;9.124;2023-02-11T01:29:18;101697.34;;;-2.77;77.46
78229;BME280;67502;49.142;9.124;2023-02-11T01:31:45;101699.97;;;-2.75;78.26
78229;BME280;67502;49.142;9.124;2023-02-11T01:34:12;101696.63;;;-2.68;77.59
78229;BME280;67502;49.142;9.124;2023-02-11T01:36:39;101696.06;;;-2.48;76.10
78229;BME280;67502;49.142;9.124;2023-02-11T01:39:05;101708.19;;;-2.46;75.27
78229;BME280;67502;49.142;9.124;2023-02-11T01:41:34;101710.00;;;-2.39;76.25
78229;BME280;67502;49.142;9.124;2023-02-11T01:47:04;101694.91;;;-2.05;75.62
78229;BME280;67502;49.142;9.124;2023-02-11T01:49:35;101694.22;;;-1.93;74.60
78229;BME280;67502;49.142;9.124;2023-02-11T01:52:13;101708.84;;;-1.98;75.76
78229;BME280;67502;49.142;9.124;2023-02-11T01:55:00;101708.13;;;-1.85;74.70
78229;BME280;67502;49.142;9.124;2023-02-11T01:57:51;101710.78;;;-1.84;74.35
78229;BME280;67502;49.142;9.124;2023-02-11T02:00:22;101699.59;;;-1.77;74.59
78229;BME280;67502;49.142;9.124;2023-02-11T02:03:13;101685.66;;;-1.86;75.16
78229;BME280;67502;49.142;9.124;2023-02-11T02:08:40;101686.53;;;-1.87;75.51
78229;BME280;67502;49.142;9.124;2023-02-11T02:11:09;101679.66;;;-1.84;75.30
78229;BME280;67502;49.142;9.124;2023-02-11T02:13:36;101672.00;;;-1.74;75.31
78229;BME280;67502;49.142;9.124;2023-02-11T02:16:10;101678.91;;;-1.72;75.08
78229;BME280;67502;49.142;9.124;2023-02-11T02:21:57;101663.38;;;-1.70;75.00
78229;BME280;67502;49.142;9.124;2023-02-11T02:27:34;101641.97;;;-1.54;73.87
78229;BME280;67502;49.142;9.124;2023-02-11T02:36:01;101636.00;;;-1.45;74.49
78229;BME280;67502;49.142;9.124;2023-02-11T02:38:54;101629.16;;;-1.37;73.70
78229;BME280;67502;49.142;9.124;2023-02-11T02:41:28;101617.13;;;-1.29;73.41
78229;BME280;67502;49.142;9.124;2023-02-11T02:43:56;101620.59;;;-1.27;73.57
78229;BME280;67502;49.142;9.124;2023-02-11T02:46:31;101606.72;;;-1.32;73.33
78229;BME280;67502;49.142;9.124;2023-02-11T02:48:58;101602.38;;;-1.33;73.31
78229;BME280;67502;49.142;9.124;2023-02-11T02:54:33;101603.28;;;-1.28;73.21
78229;BME280;67502;49.142;9.124;2023-02-11T03:00:33;101603.38;;;-1.16;73.09
78229;BME280;67502;49.142;9.124;2023-02-11T03:03:49;101606.88;;;-1.12;72.57
78229;BME280;67502;49.142;9.124;2023-02-11T03:06:23;101607.81;;;-1.04;72.34
78229;BME280;67502;49.142;9.124;2023-02-11T03:09:01;101608.69;;;-0.97;71.97
78229;BME280;67502;49.142;9.124;2023-02-11T03:11:31;101604.44;;;-0.91;72.04
78229;BME280;67502;49.142;9.124;2023-02-11T03:14:00;101595.75;;;-0.96;72.38
78229;BME280;67502;49.142;9.124;2023-02-11T03:16:29;101591.50;;;-0.83;71.91
78229;BME280;67502;49.142;9.124;2023-02-11T03:19:03;101596.75;;;-0.72;71.17
78229;BME280;67502;49.142;9.124;2023-02-11T03:21:32;101599.31;;;-0.77;71.15
78229;BME280;67502;49.142;9.124;2023-02-11T03:24:05;101605.38;;;-0.77;71.31
78229;BME280;67502;49.142;9.124;2023-02-11T03:26:55;101607.16;;;-0.68;70.72
78229;BME280;67502;49.142;9.124;2023-02-11T03:32:04;101608.03;;;-0.70;71.05
78229;BME280;67502;49.142;9.124;2023-02-11T03:37:23;101615.78;;;-0.73;70.96
78229;BME280;67502;49.142;9.124;2023-02-11T03:40:00;101620.97;;;-0.77;71.25
78229;BME280;67502;49.142;9.124;2023-02-11T03:42:33;101620.06;;;-0.82;72.10
78229;BME280;67502;49.142;9.124;2023-02-11T03:45:10;101627.06;;;-0.74;71.20
78229;BME280;67502;49.142;9.124;2023-02-11T03:47:40;101633.13;;;-0.71;71.36
78229;BME280;67502;49.142;9.124;2023-02-11T03:50:10;101620.13;;;-0.72;71.37
78229;BME280;67502;49.142;9.124;2023-02-11T03:52:38;101615.59;;;-1.03;73.23
78229;BME280;67502;49.142;9.124;2023-02-11T03:55:14;101611.06;;;-1.28;74.46
78229;BME280;67502;49.142;9.124;2023-02-11T03:57:42;101606.75;;;-1.29;74.68
78229;BME280;67502;49.142;9.124;2023-02-11T04:00:09;101611.03;;;-1.33;74.72
78229;BME280;67502;49.142;9.124;2023-02-11T04:02:38;101602.34;;;-1.38;75.09
78229;BME280;67502;49.142;9.124;2023-02-11T04:05:06;101598.88;;;-1.37;74.99
78229;BME280;67502;49.142;9.124;2023-02-11T04:07:33;101596.47;;;-1.17;73.66
78229;BME280;67502;49.142;9.124;2023-02-11T04:10:00;101605.09;;;-1.18;73.68
78229;BME280;67502;49.142;9.124;2023-02-11T04:12:27;101605.19;;;-1.07;73.19
78229;BME280;67502;49.142;9.124;2023-02-11T04:14:53;101612.16;;;-0.98;72.95
78229;BME280;67502;49.142;9.124;2023-02-11T04:17:20;101616.56;;;-0.91;73.13
78229;BME280;67502;49.142;9.124;2023-02-11T04:19:46;101607.06;;;-0.88;72.83
78229;BME280;67502;49.142;9.124;2023-02-11T04:22:13;101613.88;;;-1.04;73.52
78229;BME280;67502;49.142;9.124;2023-02-11T04:24:39;101608.59;;;-1.13;73.78
78229;BME280;67502;49.142;9.124;2023-02-11T04:27:06;101632.78;;;-1.15;74.35
78229;BME280;67502;49.142;9.124;2023-02-11T04:29:32;101625.84;;;-1.21;74.66
78229;BME280;67502;49.142;9.124;2023-02-11T04:31:59;101618.06;;;-1.19;74.62
78229;BME280;67502;49.142;9.124;2023-02-11T04:34:26;101612.06;;;-1.11;74.05
78229;BME280;67502;49.142;9.124;2023-02-11T04:36:52;101616.28;;;-1.23;74.90
78229;BME280;67502;49.142;9.124;2023-02-11T04:39:19;101622.19;;;-1.38;75.05
78229;BME280;67502;49.142;9.124;2023-02-11T04:41:46;101610.06;;;-1.45;75.75
78229;BME280;67502;49.142;9.124;2023-02-11T04:44:12;101594.56;;;-1.36;75.33
78229;BME280;67502;49.142;9.124;2023-02-11T04:46:39;101594.66;;;-1.24;74.55
78229;BME280;67502;49.142;9.124;2023-02-11T04:49:06;101593.81;;;-1.21;74.82
78229;BME280;67502;49.142;9.124;2023-02-11T04:51:32;101586.03;;;-1.24;74.66
78229;BME280;67502;49.142;9.124;2023-02-11T04:53:59;101581.66;;;-1.27;75.01
78229;BME280;67502;49.142;9.124;2023-02-11T04:56:25;101570.41;;;-1.26;74.60
78229;BME280;67502;49.142;9.124;2023-02-11T04:58:52;101579.13;;;-1.21;74.15
78229;BME280;67502;49.142;9.124;2023-02-11T05:01:18;101563.56;;;-1.18;74.24
78229;BME280;67502;49.142;9.124;2023-02-11T05:03:45;101550.63;;;-1.16;73.93
78229;BME280;67502;49.142;9.124;2023-02-11T05:06:12;101548.88;;;-1.14;74.23
78229;BME280;67502;49.142;9.124;2023-02-11T05:08:39;101541.97;;;-1.15;74.72
78229;BME280;67502;49.142;9.124;2023-02-11T05:11:06;101537.66;;;-1.13;74.10
78229;BME280;67502;49.142;9.124;2023-02-11T05:13:33;101549.78;;;-1.11;74.21
78229;BME280;67502;49.142;9.124;2023-02-11T05:16:00;101541.16;;;-1.08;73.95
78229;BME280;67502;49.142;9.124;2023-02-11T05:18:26;101542.94;;;-0.99;73.73
78229;BME280;67502;49.142;9.124;2023-02-11T05:20:53;101541.19;;;-1.01;73.58
78229;BME280;67502;49.142;9.124;2023-02-11T05:23:19;101555.97;;;-0.92;73.19
78229;BME280;67502;49.142;9.124;2023-02-11T05:25:46;101562.94;;;-0.88;72.99
78229;BME280;67502;49.142;9.124;2023-02-11T05:28:12;101573.25;;;-0.92;73.05
78229;BME280;67502;49.142;9.124;2023-02-11T05:30:39;101571.56;;;-0.92;73.34
78229;BME280;67502;49.142;9.124;2023-02-11T05:33:05;101579.28;;;-0.98;73.87
78229;BME280;67502;49.142;9.124;2023-02-11T05:35:32;101591.47;;;-0.91;72.95
78229;BME280;67502;49.142;9.124;2023-02-11T05:37:59;101595.03;;;-0.73;72.59
78229;BME280;67502;49.142;9.124;2023-02-11T05:40:25;101595.94;;;-0.65;71.78
78229;BME280;67502;49.142;9.124;2023-02-11T05:42:52;101595.91;;;-0.68;72.40
78229;BME280;67502;49.142;9.124;2023-02-11T05:45:18;101600.31;;;-0.57;72.04
78229;BME280;67502;49.142;9.124;2023-02-11T05:47:45;101593.38;;;-0.61;71.95
78229;BME280;67502;49.142;9.124;2023-02-11T05:50:11;101591.66;;;-0.57;72.45
78229;BME280;67502;49.142;9.124;2023-02-11T05:52:38;101581.19;;;-0.69;73.00
78229;BME280;67502;49.142;9.124;2023-02-11T05:55:05;101566.47;;;-0.72;73.24
78229;BME280;67502;49.142;9.124;2023-02-11T05:57:32;101565.63;;;-0.68;73.30
78229;BME280;67502;49.142;9.124;2023-02-11T05:59:59;101568.31;;;-0.54;72.40
78229;BME280;67502;49.142;9.124;2023-02-11T06:02:25;101567.41;;;-0.61;72.84
78229;BME280;67502;49.142;9.124;2023-02-11T06:04:52;101561.31;;;-0.63;72.73
78229;BME280;67502;49.142;9.124;2023-02-11T06:07:18;101561.31;;;-0.64;73.02
78229;BME280;67502;49.142;9.124;2023-02-11T06:09:45;101564.78;;;-0.64;72.51
78229;BME280;67502;49.142;9.124;2023-02-11T06:12:12;101551.81;;;-0.61;72.92
78229;BME280;67502;49.142;9.124;2023-02-11T06:14:38;101556.97;;;-0.65;72.92
78229;BME280;67502;49.142;9.124;2023-02-11T06:17:05;101560.44;;;-0.63;73.55
78229;BME280;67502;49.142;9.124;2023-02-11T06:19:32;101559.56;;;-0.65;73.12
78229;BME280;67502;49.142;9.124;2023-02-11T06:21:59;101563.88;;;-0.72;73.61
78229;BME280;67502;49.142;9.124;2023-02-11T06:24:25;101560.41;;;-0.68;73.09
78229;BME280;67502;49.142;9.124;2023-02-11T06:27:12;101559.56;;;-0.64;72.82
78229;BME280;67502;49.142;9.124;2023-02-11T06:29:38;101556.06;;;-0.72;73.04
78229;BME280;67502;49.142;9.124;2023-02-11T06:32:05;101568.16;;;-0.79;73.04
78229;BME280;67502;49.142;9.124;2023-02-11T06:34:31;101570.75;;;-0.77;72.99
78229;BME280;67502;49.142;9.124;2023-02-11T06:36:58;101578.50;;;-0.85;73.72
78229;BME280;67502;49.142;9.124;2023-02-11T06:39:24;101572.50;;;-0.76;73.15
78229;BME280;67502;49.142;9.124;2023-02-11T06:41:51;101562.09;;;-0.82;73.41
78229;BME280;67502;49.142;9.124;2023-02-11T06:44:17;101563.78;;;-0.92;73.80
78229;BME280;67502;49.142;9.124;2023-02-11T06:46:44;101568.97;;;-0.90;74.27
78229;BME280;67502;49.142;9.124;2023-02-11T06:49:11;101571.59;;;-0.83;74.01
78229;BME280;67502;49.142;9.124;2023-02-11T06:51:37;101570.72;;;-0.86;74.47
78229;BME280;67502;49.142;9.124;2023-02-11T06:54:05;101569.88;;;-0.82;74.45
78229;BME280;67502;49.142;9.124;2023-02-11T06:56:32;101574.19;;;-0.81;73.85
78229;BME280;67502;49.142;9.124;2023-02-11T06:58:59;101554.31;;;-0.76;74.05
78229;BME280;67502;49.142;9.124;2023-02-11T07:01:26;101553.47;;;-0.73;73.90
78229;BME280;67502;49.142;9.124;2023-02-11T07:03:53;101565.63;;;-0.65;73.69
78229;BME280;67502;49.142;9.124;2023-02-11T07:06:22;101570.88;;;-0.56;72.65
78229;BME280;67502;49.142;9.124;2023-02-11T07:08:50;101588.22;;;-0.52;72.92
78229;BME280;67502;49.142;9.124;2023-02-11T07:11:23;101593.41;;;-0.52;73.06
78229;BME280;67502;49.142;9.124;2023-02-11T07:13:51;101596.91;;;-0.42;72.33
78229;BME280;67502;49.142;9.124;2023-02-11T07:16:18;101590.00;;;-0.38;73.16
78229;BME280;67502;49.142;9.124;2023-02-11T07:18:46;101594.34;;;-0.37;73.11
78229;BME280;67502;49.142;9.124;2023-02-11T07:21:17;101580.47;;;-0.38;72.72
78229;BME280;67502;49.142;9.124;2023-02-11T07:23:45;101585.72;;;-0.33;73.06
78229;BME280;67502;49.142;9.124;2023-02-11T07:26:14;101572.75;;;-0.21;73.79
78229;BME280;67502;49.142;9.124;2023-02-11T07:28:42;101555.41;;;-0.22;71.69
78229;BME280;67502;49.142;9.124;2023-02-11T07:31:13;101562.34;;;-0.22;71.81
78229;BME280;67502;49.142;9.124;2023-02-11T07:33:40;101550.22;;;-0.22;72.01
78229;BME280;67502;49.142;9.124;2023-02-11T07:36:09;101548.53;;;-0.15;72.12
78229;BME280;67502;49.142;9.124;2023-02-11T07:38:36;101542.44;;;-0.23;71.85
78229;BME280;67502;49.142;9.124;2023-02-11T07:41:06;101540.78;;;0.09;75.63
78229;BME280;67502;49.142;9.124;2023-02-11T07:43:33;101553.69;;;-0.21;71.83
78229;BME280;67502;49.142;9.124;2023-02-11T07:46:05;101551.94;;;-0.21;71.72
78229;BME280;67502;49.142;9.124;2023-02-11T07:48:33;101557.16;;;-0.18;71.76
78229;BME280;67502;49.142;9.124;2023-02-11T07:51:12;101564.09;;;-0.21;71.83
78229;BME280;67502;49.142;9.124;2023-02-11T07:53:40;101566.66;;;-0.26;72.06
78229;BME280;67502;49.142;9.124;2023-02-11T16:30:44;101541.50;;;6.12;63.35
78229;BME280;67502;49.142;9.124;2023-02-11T16:33:10;101539.69;;;6.14;63.04
78229;BME280;67502;49.142;9.124;2023-02-11T16:35:37;101548.25;;;6.23;62.92
78229;BME280;67502;49.142;9.124;2023-02-11T16:38:04;101542.88;;;6.28;62.51
78229;BME280;67502;49.142;9.124;2023-02-11T16:40:30;101548.09;;;6.30;61.82
78229;BME280;67502;49.142;9.124;2023-02-11T16:42:57;101543.69;;;6.30;61.88
78229;BME280;67502;49.142;9.124;2023-02-11T16:45:23;101546.31;;;6.30;61.83
78229;BME280;67502;49.142;9.124;2023-02-11T16:47:50;101551.63;;;6.29;62.12
78229;BME280;67502;49.142;9.124;2023-02-11T16:50:22;101543.84;;;6.24;61.61
78229;BME280;67502;49.142;9.124;2023-02-11T16:52:49;101557.78;;;6.28;61.51
78229;BME280;67502;49.142;9.124;2023-02-11T16:55:17;101548.34;;;6.19;62.48
78229;BME280;67502;49.142;9.124;2023-02-11T16:57:47;101551.25;;;6.07;63.14
78229;BME280;67502;49.142;9.124;2023-02-11T17:00:15;101547.22;;;5.90;64.73
78229;BME280;67502;49.142;9.124;2023-02-11T17:02:42;101558.78;;;5.80;64.78
78229;BME280;67502;49.142;9.124;2023-02-11T17:05:20;101556.13;;;5.82;64.56
78229;BME280;67502;49.142;9.124;2023-02-11T17:07:48;101551.75;;;5.82;64.30
78229;BME280;67502;49.142;9.124;2023-02-11T17:10:17;101559.63;;;5.81;64.55
78229;BME280;67502;49.142;9.124;2023-02-11T17:12:44;101560.59;;;5.78;64.92
78229;BME280;67502;49.142;9.124;2023-02-11T17:15:11;101567.69;;;5.73;64.75
78229;BME280;67502;49.142;9.124;2023-02-11T17:17:37;101561.84;;;5.60;65.38
78229;BME280;67502;49.142;9.124;2023-02-11T17:20:04;101562.00;;;5.51;65.95
78229;BME280;67502;49.142;9.124;2023-02-11T17:22:32;101564.47;;;5.60;65.34
78229;BME280;67502;49.142;9.124;2023-02-11T17:24:59;101568.72;;;5.66;65.18
78229;BME280;67502;49.142;9.124;2023-02-11T17:27:25;101556.09;;;5.41;66.34
78229;BME280;67502;49.142;9.124;2023-02-11T17:29:52;101564.03;;;5.37;66.26
78229;BME280;67502;49.142;9.124;2023-02-11T17:32:18;101576.88;;;5.50;66.01
78229;BME280;67502;49.142;9.124;2023-02-11T17:34:45;101569.06;;;5.47;66.09
78229;BME280;67502;49.142;9.124;2023-02-11T17:37:11;101578.81;;;5.41;66.15
78229;BME280;67502;49.142;9.124;2023-02-11T17:39:38;101567.47;;;5.40;66.27
78229;BME280;67502;49.142;9.124;2023-02-11T17:42:06;101566.53;;;5.44;66.32
78229;BME280;67502;49.142;9.124;2023-02-11T17:44:34;101579.44;;;5.54;65.29
78229;BME280;67502;49.142;9.124;2023-02-11T17:47:00;101582.88;;;5.57;65.04
78229;BME280;67502;49.142;9.124;2023-02-11T17:49:27;101580.16;;;5.62;65.14
78229;BME280;67502;49.142;9.124;2023-02-11T17:51:54;101587.13;;;5.63;64.88
78229;BME280;67502;49.142;9.124;2023-02-11T17:54:20;101588.94;;;5.61;65.67
78229;BME280;67502;49.142;9.124;2023-02-11T17:56:47;101586.41;;;5.56;65.18
78229;BME280;67502;49.142;9.124;2023-02-11T17:59:16;101593.47;;;5.51;66.01
78229;BME280;67502;49.142;9.124;2023-02-11T18:01:43;101589.94;;;5.54;66.00
78229;BME280;67502;49.142;9.124;2023-02-11T18:04:13;101596.13;;;5.49;66.41
78229;BME280;67502;49.142;9.124;2023-02-11T18:06:40;101599.66;;;5.48;66.22
78229;BME280;67502;49.142;9.124;2023-02-11T18:09:06;101595.38;;;5.44;66.23
78229;BME280;67502;49.142;9.124;2023-02-11T18:11:35;101600.63;;;5.44;65.97
78229;BME280;67502;49.142;9.124;2023-02-11T18:14:03;101596.38;;;5.37;66.61
78229;BME280;67502;49.142;9.124;2023-02-11T18:16:30;101606.81;;;5.40;66.30
78229;BME280;67502;49.142;9.124;2023-02-11T18:18:57;101605.94;;;5.40;66.58
78229;BME280;67502;49.142;9.124;2023-02-11T18:21:23;101598.91;;;5.42;66.67
78229;BME280;67502;49.142;9.124;2023-02-11T18:23:50;101619.16;;;5.35;66.81
78229;BME280;67502;49.142;9.124;2023-02-11T18:26:18;101623.53;;;5.33;66.39
78229;BME280;67502;49.142;9.124;2023-02-11T18:28:45;101615.81;;;5.27;67.26
78229;BME280;67502;49.142;9.124;2023-02-11T18:31:12;101612.28;;;5.28;67.10
78229;BME280;67502;49.142;9.124;2023-02-11T18:33:40;101614.03;;;5.26;66.72
78229;BME280;67502;49.142;9.124;2023-02-11T18:36:13;101615.13;;;5.16;67.59
78229;BME280;67502;49.142;9.124;2023-02-11T18:38:40;101615.94;;;5.18;67.19
78229;BME280;67502;49.142;9.124;2023-02-11T18:41:10;101610.78;;;5.15;67.14
78229;BME280;67502;49.142;9.124;2023-02-11T18:43:36;101604.75;;;5.08;67.43
78229;BME280;67502;49.142;9.124;2023-02-11T18:46:08;101606.59;;;5.03;68.17
78229;BME280;67502;49.142;9.124;2023-02-11T18:48:35;101605.81;;;4.96;68.44
78229;BME280;67502;49.142;9.124;2023-02-11T18:51:07;101602.28;;;5.00;68.07
78229;BME280;67502;49.142;9.124;2023-02-11T18:53:35;101604.06;;;4.98;67.89
78229;BME280;67502;49.142;9.124;2023-02-11T18:56:06;101605.06;;;4.91;68.43
78229;BME280;67502;49.142;9.124;2023-02-11T18:58:33;101605.09;;;4.90;68.28
78229;BME280;67502;49.142;9.124;2023-02-11T19:00:59;101608.69;;;4.83;68.55
78229;BME280;67502;49.142;9.124;2023-02-11T19:03:26;101609.59;;;4.82;68.49
78229;BME280;67502;49.142;9.124;2023-02-11T19:05:53;101607.78;;;4.85;68.39
78229;BME280;67502;49.142;9.124;2023-02-11T19:08:20;101601.66;;;4.86;68.71
78229;BME280;67502;49.142;9.124;2023-02-11T19:10:46;101600.00;;;4.79;69.22
78229;BME280;67502;49.142;9.124;2023-02-11T19:13:14;101598.44;;;4.67;69.58
78229;BME280;67502;49.142;9.124;2023-02-11T19:15:45;101601.09;;;4.66;69.80
78229;BME280;67502;49.142;9.124;2023-02-11T19:18:13;101600.31;;;4.59;70.27
78229;BME280;67502;49.142;9.124;2023-02-11T19:20:41;101593.28;;;4.64;70.11
78229;BME280;67502;49.142;9.124;2023-02-11T19:23:09;101596.00;;;4.57;70.28
78229;BME280;67502;49.142;9.124;2023-02-11T19:25:36;101603.88;;;4.55;70.38
78229;BME280;67502;49.142;9.124;2023-02-11T19:28:03;101604.69;;;4.60;69.79
78229;BME280;67502;49.142;9.124;2023-02-11T19:30:29;101600.25;;;4.64;70.29
78229;BME280;67502;49.142;9.124;2023-02-11T19:32:56;101609.00;;;4.63;70.32
78229;BME280;67502;49.142;9.124;2023-02-11T19:35:24;101608.19;;;4.61;70.68
78229;BME280;67502;49.142;9.124;2023-02-11T19:37:50;101606.41;;;4.60;70.96
78229;BME280;67502;49.142;9.124;2023-02-11T19:40:18;101605.69;;;4.50;71.62
78229;BME280;67502;49.142;9.124;2023-02-11T19:42:46;101609.22;;;4.49;71.25
78229;BME280;67502;49.142;9.124;2023-02-11T19:45:13;101608.41;;;4.45;71.54
78229;BME280;67502;49.142;9.124;2023-02-11T19:47:40;101607.56;;;4.43;71.42
78229;BME280;67502;49.142;9.124;2023-02-11T19:50:07;101618.09;;;4.40;71.72
78229;BME280;67502;49.142;9.124;2023-02-11T19:52:37;101615.44;;;4.43;71.44
78229;BME280;67502;49.142;9.124;2023-02-11T19:55:04;101624.94;;;4.49;71.13
78229;BME280;67502;49.142;9.124;2023-02-11T19:57:30;101628.38;;;4.53;71.24
78229;BME280;67502;49.142;9.124;2023-02-11T19:59:57;101626.66;;;4.52;71.44
78229;BME280;67502;49.142;9.124;2023-02-11T20:02:24;101626.59;;;4.56;71.39
78229;BME280;67502;49.142;9.124;2023-02-11T20:04:50;101630.00;;;4.60;70.69
78229;BME280;67502;49.142;9.124;2023-02-11T20:07:17;101626.50;;;4.59;71.03
78229;BME280;67502;49.142;9.124;2023-02-11T20:09:43;101629.16;;;4.58;70.97
78229;BME280;67502;49.142;9.124;2023-02-11T20:12:10;101619.72;;;4.47;71.43
78229;BME280;67502;49.142;9.124;2023-02-11T20:14:37;101625.81;;;4.46;71.56
78229;BME280;67502;49.142;9.124;2023-02-11T20:17:04;101622.28;;;4.50;71.15
78229;BME280;67502;49.142;9.124;2023-02-11T20:19:30;101615.31;;;4.49;70.94
78229;BME280;67502;49.142;9.124;2023-02-11T20:21:57;101617.22;;;4.40;71.47
78229;BME280;67502;49.142;9.124;2023-02-11T20:24:24;101608.44;;;4.42;71.55
78229;BME280;67502;49.142;9.124;2023-02-11T20:26:50;101611.06;;;4.44;71.48
78229;BME280;67502;49.142;9.124;2023-02-11T20:29:22;101614.41;;;4.52;71.35
78229;BME280;67502;49.142;9.124;2023-02-11T20:31:49;101622.34;;;4.47;71.56
78229;BME280;67502;49.142;9.124;2023-02-11T20:34:16;101619.72;;;4.47;71.82
78229;BME280;67502;49.142;9.124;2023-02-11T20:36:44;101623.09;;;4.54;71.13
78229;BME280;67502;49.142;9.124;2023-02-11T20:39:18;101627.28;;;4.66;70.72
78229;BME280;67502;49.142;9.124;2023-02-11T20:41:47;101633.53;;;4.57;71.61
78229;BME280;67502;49.142;9.124;2023-02-11T20:44:14;101630.81;;;4.65;71.30
78229;BME280;67502;49.142;9.124;2023-02-11T20:46:43;101630.03;;;4.58;71.44
78229;BME280;67502;49.142;9.124;2023-02-11T20:49:15;101634.44;;;4.55;71.92
78229;BME280;67502;49.142;9.124;2023-02-11T20:51:44;101638.75;;;4.59;71.44
78229;BME280;67502;49.142;9.124;2023-02-11T20:54:16;101645.84;;;4.50;71.82
78229;BME280;67502;49.142;9.124;2023-02-11T20:56:44;101646.97;;;4.33;72.44
78229;BME280;67502;49.142;9.124;2023-02-11T20:59:14;101639.09;;;4.36;72.50
78229;BME280;67502;49.142;9.124;2023-02-11T21:01:44;101633.75;;;4.43;72.14
78229;BME280;67502;49.142;9.124;2023-02-11T21:04:34;101629.38;;;4.42;72.21
78229;BME280;67502;49.142;9.124;2023-02-11T21:07:00;101629.44;;;4.39;72.55
78229;BME280;67502;49.142;9.124;2023-02-11T21:09:30;101631.28;;;4.33;72.38
78229;BME280;67502;49.142;9.124;2023-02-11T21:11:57;101638.22;;;4.35;72.19
78229;BME280;67502;49.142;9.124;2023-02-11T21:14:26;101641.66;;;4.40;72.34
78229;BME280;67502;49.142;9.124;2023-02-11T21:16:53;101646.09;;;4.34;72.68
78229;BME280;67502;49.142;9.124;2023-02-11T21:19:20;101647.88;;;4.30;72.71
78229;BME280;67502;49.142;9.124;2023-02-11T21:21:47;101642.59;;;4.35;72.08
78229;BME280;67502;49.142;9.124;2023-02-11T21:24:14;101647.84;;;4.33;72.82
78229;BME280;67502;49.142;9.124;2023-02-11T21:26:41;101636.50;;;4.33;72.63
78229;BME280;67502;49.142;9.124;2023-02-11T21:29:08;101646.94;;;4.34;72.70
78229;BME280;67502;49.142;9.124;2023-02-11T21:31:35;101639.91;;;4.39;72.54
78229;BME280;67502;49.142;9.124;2023-02-11T21:34:03;101637.34;;;4.36;72.82
78229;BME280;67502;49.142;9.124;2023-02-11T21:36:30;101637.28;;;4.41;72.38
78229;BME280;67502;49.142;9.124;2023-02-11T21:38:57;101645.38;;;4.21;73.28
78229;BME280;67502;49.142;9.124;2023-02-11T21:41:25;101649.00;;;4.12;73.78
78229;BME280;67502;49.142;9.124;2023-02-11T21:43:52;101642.88;;;4.13;73.84
78229;BME280;67502;49.142;9.124;2023-02-11T21:46:21;101651.56;;;4.14;73.54
78229;BME280;67502;49.142;9.124;2023-02-11T21:48:48;101659.34;;;4.23;73.35
78229;BME280;67502;49.142;9.124;2023-02-11T21:51:15;101654.03;;;4.26;73.60
78229;BME280;67502;49.142;9.124;2023-02-11T21:53:42;101648.75;;;4.32;73.24
78229;BME280;67502;49.142;9.124;2023-02-11T21:56:16;101648.88;;;4.23;73.68
78229;BME280;67502;49.142;9.124;2023-02-11T21:58:44;101657.50;;;4.28;73.25
78229;BME280;67502;49.142;9.124;2023-02-11T22:01:17;101664.47;;;4.31;73.36
78229;BME280;67502;49.142;9.124;2023-02-11T22:03:46;101668.75;;;4.36;72.80
78229;BME280;67502;49.142;9.124;2023-02-11T22:06:19;101670.50;;;4.36;72.97